Time,TemperatureF,DewpointF,PressureIn,WindDirection,WindDirectionDegrees,WindSpeedMPH,WindSpeedGustMPH,Humidity,HourlyPrecipIn,Conditions,Clouds,dailyrainin,SoftwareType,DateUTC
2013-03-27 00:04:00,27.0,10.8,29.93,NW,318,0.0,0.0,50,0.00,NA,NA,-99.99,VWS Version 10.38,2013-03-27 04:04:00,
2013-03-27 00:09:00,27.0,10.8,29.93,NW,318,0.0,0.0,50,0.00,NA,NA,-99.99,VWS Version 10.38,2013-03-27 04:09:00,
2013-03-27 00:14:00,27.0,11.3,29.93,NW,318,0.0,0.0,51,0.00,NA,NA,-99.99,VWS Version 10.38,2013-03-27 04:14:00,
2013-03-27 00:24:00,26.8,11.1,29.93,NW,318,0.0,0.0,51,0.00,NA,NA,-99.99,VWS Version 10.38,2013-03-27 04:24:00,
2013-03-27 00:29:00,26.8,11.1,29.93,NW,318,0.0,0.0,51,0.00,NA,NA,-99.99,VWS Version 10.38,2013-03-27 04:29:00,
2013-03-27 00:39:00,26.4,11.2,29.93,NW,318,0.0,0.0,52,0.00,NA,NA,-99.99,VWS Version 10.38,2013-03-27 04:39:00,
2013-03-27 00:44:00,26.4,11.2,29.93,NW,318,0.0,0.0,52,0.00,NA,NA,-99.99,VWS Version 10.38,2013-03-27 04:44:00,
2013-03-27 00:49:00,26.2,11.0,29.93,NW,318,0.0,0.0,52,0.00,NA,NA,-99.99,VWS Version 10.38,2013-03-27 04:49:00,
2013-03-27 00:54:00,26.2,11.4,29.93,NW,318,0.0,0.0,53,0.00,NA,NA,-99.99,VWS Version 10.38,2013-03-27 04:54:00,
2013-03-27 00:59:00,26.2,11.4,29.93,NW,318,0.0,0.0,53,0.00,NA,NA,-99.99,VWS Version 10.38,2013-03-27 04:59:00,
2013-03-27 01:09:00,26.1,11.3,29.93,NW,318,0.0,0.0,53,0.00,NA,NA,-99.99,VWS Version 10.38,2013-03-27 05:09:00,
2013-03-27 01:14:00,26.1,11.3,29.93,NW,318,0.0,0.0,53,0.00,NA,NA,-99.99,VWS Version 10.38,2013-03-27 05:14:00,
2013-03-27 01:19:00,26.1,11.3,29.93,NW,318,0.0,0.0,53,0.00,NA,NA,-99.99,VWS Version 10.38,2013-03-27 05:19:00,
2013-03-27 01:29:00,25.9,11.5,29.93,NW,318,0.0,0.0,54,0.00,NA,NA,-99.99,VWS Version 10.38,2013-03-27 05:29:00,
2013-03-27 01:34:00,25.9,11.5,29.93,NW,318,0.0,0.0,54,0.00,NA,NA,-99.99,VWS Version 10.38,2013-03-27 05:34:00,
2013-03-27 01:39:00,25.9,11.5,29.93,NW,318,0.0,0.0,54,0.00,NA,NA,-99.99,VWS Version 10.38,2013-03-27 05:39:00,
2013-03-27 01:49:00,25.7,11.4,29.93,NW,318,0.0,0.0,54,0.00,NA,NA,-99.99,VWS Version 10.38,2013-03-27 05:49:00,
2013-03-27 01:54:00,25.7,11.8,29.93,NW,318,0.0,0.0,55,0.00,NA,NA,-99.99,VWS Version 10.38,2013-03-27 05:54:00,
2013-03-27 02:04:00,25.5,11.6,29.93,NW,318,0.0,0.0,55,0.00,NA,NA,-99.99,VWS Version 10.38,2013-03-27 06:04:00,
2013-03-27 02:14:00,25.3,11.4,29.93,NW,318,0.0,0.0,55,0.00,NA,NA,-99.99,VWS Version 10.38,2013-03-27 06:14:00,
2013-03-27 02:19:00,25.3,11.4,29.93,NW,318,0.0,0.0,55,0.00,NA,NA,-99.99,VWS Version 10.38,2013-03-27 06:19:00,
2013-03-27 02:29:00,25.3,11.9,29.93,NW,318,0.0,0.0,56,0.00,NA,NA,-99.99,VWS Version 10.38,2013-03-27 06:29:00,
2013-03-27 02:39:00,25.3,11.9,29.93,NW,318,0.0,0.0,56,0.00,NA,NA,-99.99,VWS Version 10.38,2013-03-27 06:39:00,
2013-03-27 02:44:00,25.3,11.9,29.93,NW,318,0.0,0.0,56,0.00,NA,NA,-99.99,VWS Version 10.38,2013-03-27 06:44:00,
2013-03-27 02:54:00,25.2,11.7,29.93,NW,318,0.0,0.0,56,0.00,NA,NA,-99.99,VWS Version 10.38,2013-03-27 06:54:00,
2013-03-27 02:59:00,25.0,11.5,29.93,NW,318,0.0,0.0,56,0.00,NA,NA,-99.99,VWS Version 10.38,2013-03-27 06:59:00,
2013-03-27 03:04:00,25.0,11.9,29.93,NW,318,0.0,0.0,57,0.00,NA,NA,-99.99,VWS Version 10.38,2013-03-27 07:04:00,
2013-03-27 03:09:00,24.8,11.7,29.93,NW,318,0.0,0.0,57,0.00,NA,NA,-99.99,VWS Version 10.38,2013-03-27 07:09:00,
2013-03-27 03:15:00,24.8,11.7,29.93,NW,318,0.0,0.0,57,0.00,NA,NA,-99.99,VWS Version 10.38,2013-03-27 07:15:00,
2013-03-27 03:20:00,24.8,11.7,29.93,NW,318,0.0,0.0,57,0.00,NA,NA,-99.99,VWS Version 10.38,2013-03-27 07:20:00,
2013-03-27 03:25:00,24.8,12.1,29.93,NW,318,0.0,0.0,58,0.00,NA,NA,-99.99,VWS Version 10.38,2013-03-27 07:25:00,
2013-03-27 03:30:00,24.8,12.1,29.93,NW,318,0.0,0.0,58,0.00,NA,NA,-99.99,VWS Version 10.38,2013-03-27 07:30:00,
2013-03-27 03:35:00,24.6,12.0,29.93,NW,318,0.0,0.0,58,0.00,NA,NA,-99.99,VWS Version 10.38,2013-03-27 07:35:00,
2013-03-27 03:40:00,24.6,12.0,29.93,NW,318,0.0,0.0,58,0.00,NA,NA,-99.99,VWS Version 10.38,2013-03-27 07:40:00,
2013-03-27 03:45:00,24.6,12.0,29.93,NW,318,0.0,0.0,58,0.00,NA,NA,-99.99,VWS Version 10.38,2013-03-27 07:45:00,
2013-03-27 03:55:00,24.6,12.4,29.93,NW,318,0.0,0.0,59,0.00,NA,NA,-99.99,VWS Version 10.38,2013-03-27 07:55:00,
2013-03-27 04:00:00,24.4,12.2,29.93,NW,318,0.0,0.0,59,0.00,NA,NA,-99.99,VWS Version 10.38,2013-03-27 08:00:00,
2013-03-27 04:05:00,24.4,12.2,29.93,NW,318,0.0,0.0,59,0.00,NA,NA,-99.99,VWS Version 10.38,2013-03-27 08:05:00,
2013-03-27 04:10:00,24.6,12.4,29.93,NW,318,0.0,0.0,59,0.00,NA,NA,-99.99,VWS Version 10.38,2013-03-27 08:10:00,
2013-03-27 04:15:00,24.4,12.6,29.93,NW,318,0.0,0.0,60,0.00,NA,NA,-99.99,VWS Version 10.38,2013-03-27 08:15:00,
2013-03-27 04:25:00,24.4,12.6,29.93,NW,318,0.0,0.0,60,0.00,NA,NA,-99.99,VWS Version 10.38,2013-03-27 08:25:00,
2013-03-27 04:30:00,24.3,12.4,29.93,NW,318,0.0,0.0,60,0.00,NA,NA,-99.99,VWS Version 10.38,2013-03-27 08:30:00,
2013-03-27 04:35:00,24.3,12.8,29.93,NW,318,0.0,0.0,61,0.00,NA,NA,-99.99,VWS Version 10.38,2013-03-27 08:35:00,
2013-03-27 04:40:00,24.3,12.8,29.93,NW,318,0.0,0.0,61,0.00,NA,NA,-99.99,VWS Version 10.38,2013-03-27 08:40:00,
2013-03-27 04:45:00,24.1,12.6,29.93,NW,318,0.0,0.0,61,0.00,NA,NA,-99.99,VWS Version 10.38,2013-03-27 08:45:00,
2013-03-27 04:50:00,23.9,12.4,29.93,NW,318,0.0,0.0,61,0.00,NA,NA,-99.99,VWS Version 10.38,2013-03-27 08:50:00,
2013-03-27 04:55:00,23.9,12.8,29.93,NW,318,0.0,0.0,62,0.00,NA,NA,-99.99,VWS Version 10.38,2013-03-27 08:55:00,
2013-03-27 05:04:00,23.9,12.8,29.93,NW,318,0.0,0.0,62,0.00,NA,NA,-99.99,VWS Version 10.38,2013-03-27 09:04:00,
2013-03-27 05:09:00,23.9,12.8,29.93,NW,318,0.0,0.0,62,0.00,NA,NA,-99.99,VWS Version 10.38,2013-03-27 09:09:00,
2013-03-27 05:14:00,23.9,13.1,29.93,NW,318,0.0,0.0,63,0.00,NA,NA,-99.99,VWS Version 10.38,2013-03-27 09:14:00,
2013-03-27 05:19:00,23.9,13.1,29.93,NW,318,0.0,0.0,63,0.00,NA,NA,-99.99,VWS Version 10.38,2013-03-27 09:19:00,
2013-03-27 05:24:00,23.7,13.0,29.93,NW,318,0.0,0.0,63,0.00,NA,NA,-99.99,VWS Version 10.38,2013-03-27 09:24:00,
2013-03-27 05:34:00,23.7,13.3,29.93,NW,318,0.0,0.0,64,0.00,NA,NA,-99.99,VWS Version 10.38,2013-03-27 09:34:00,
2013-03-27 05:39:00,23.7,13.3,29.93,NW,318,0.0,0.0,64,0.00,NA,NA,-99.99,VWS Version 10.38,2013-03-27 09:39:00,
2013-03-27 05:44:00,23.7,13.3,29.93,NW,318,0.0,0.0,64,0.00,NA,NA,-99.99,VWS Version 10.38,2013-03-27 09:44:00,
2013-03-27 05:49:00,23.7,13.7,29.93,NW,318,0.0,0.0,65,0.00,NA,NA,-99.99,VWS Version 10.38,2013-03-27 09:49:00,
2013-03-27 05:54:00,23.5,13.5,29.93,NW,318,0.0,0.0,65,0.00,NA,NA,-99.99,VWS Version 10.38,2013-03-27 09:54:00,
2013-03-27 05:59:00,23.5,13.5,29.93,NW,318,0.0,0.0,65,0.00,NA,NA,-99.99,VWS Version 10.38,2013-03-27 09:59:00,
2013-03-27 16:54:00,57.0,16.4,29.93,NNW,343,3.6,3.6,20,0.00,NA,NA,-99.99,VWS Version 10.38,2013-03-27 20:54:00,
2013-03-27 16:59:00,55.9,15.5,29.93,NW,320,8.1,8.1,20,0.00,NA,NA,-99.99,VWS Version 10.38,2013-03-27 20:59:00,
2013-03-27 17:04:00,55.9,15.5,29.93,NNW,337,4.0,4.0,20,0.00,NA,NA,-99.99,VWS Version 10.38,2013-03-27 21:04:00,
2013-03-27 17:14:00,55.8,15.3,29.93,ESE,120,0.0,0.0,20,0.00,NA,NA,-99.99,VWS Version 10.38,2013-03-27 21:14:00,
2013-03-27 17:19:00,55.4,15.0,29.93,WSW,256,8.3,8.3,20,0.00,NA,NA,-99.99,VWS Version 10.38,2013-03-27 21:19:00,
2013-03-27 17:24:00,55.4,15.0,29.93,West,264,3.6,3.6,20,0.00,NA,NA,-99.99,VWS Version 10.38,2013-03-27 21:24:00,
2013-03-27 17:29:00,55.0,14.7,29.93,NW,319,7.2,7.2,20,0.00,NA,NA,-99.99,VWS Version 10.38,2013-03-27 21:29:00,
2013-03-27 17:34:00,54.1,14.0,29.93,SSW,210,3.6,3.6,20,0.00,NA,NA,-99.99,VWS Version 10.38,2013-03-27 21:34:00,
2013-03-27 17:39:00,52.9,14.0,29.93,ENE,57,2.7,2.7,21,0.00,NA,NA,-99.99,VWS Version 10.38,2013-03-27 21:39:00,
2013-03-27 17:49:00,50.2,11.8,29.93,WNW,290,3.1,3.1,21,0.00,NA,NA,-99.99,VWS Version 10.38,2013-03-27 21:49:00,
2013-03-27 17:54:00,50.0,11.6,29.93,NW,318,5.4,5.4,21,0.00,NA,NA,-99.99,VWS Version 10.38,2013-03-27 21:54:00,
2013-03-27 17:59:00,50.0,11.6,29.93,West,264,3.1,3.1,21,0.00,NA,NA,-99.99,VWS Version 10.38,2013-03-27 21:59:00,
2013-03-27 18:04:00,49.8,11.5,29.93,WSW,250,0.0,0.0,21,0.00,NA,NA,-99.99,VWS Version 10.38,2013-03-27 22:04:00,
2013-03-27 18:09:00,49.6,11.3,29.93,West,265,5.8,5.8,21,0.00,NA,NA,-99.99,VWS Version 10.38,2013-03-27 22:09:00,
2013-03-27 18:14:00,49.5,11.2,29.93,North,357,5.8,5.8,21,0.00,NA,NA,-99.99,VWS Version 10.38,2013-03-27 22:14:00,
2013-03-27 18:24:00,49.6,11.3,29.96,WSW,249,6.3,6.3,21,0.00,NA,NA,-99.99,VWS Version 10.38,2013-03-27 22:24:00,
2013-03-27 18:29:00,49.6,11.3,29.96,WSW,247,5.4,5.4,21,0.00,NA,NA,-99.99,VWS Version 10.38,2013-03-27 22:29:00,
2013-03-27 18:34:00,49.3,11.0,29.96,WNW,295,5.4,5.4,21,0.00,NA,NA,-99.99,VWS Version 10.38,2013-03-27 22:34:00,
2013-03-27 18:39:00,48.9,10.7,29.96,NW,313,5.8,5.8,21,0.00,NA,NA,-99.99,VWS Version 10.38,2013-03-27 22:39:00,
2013-03-27 18:44:00,48.4,10.3,29.96,West,279,2.7,2.7,21,0.00,NA,NA,-99.99,VWS Version 10.38,2013-03-27 22:44:00,
2013-03-27 18:54:00,47.7,10.7,29.96,NW,316,3.6,3.6,22,0.00,NA,NA,-99.99,VWS Version 10.38,2013-03-27 22:54:00,
2013-03-27 18:59:00,47.3,10.4,29.96,NW,304,3.1,3.1,22,0.00,NA,NA,-99.99,VWS Version 10.38,2013-03-27 22:59:00,
2013-03-27 19:04:00,46.9,10.1,29.96,NW,311,4.9,4.9,22,0.00,NA,NA,-99.99,VWS Version 10.38,2013-03-27 23:04:00,
2013-03-27 19:09:00,46.8,9.9,29.96,SSW,193,0.0,0.0,22,0.00,NA,NA,-99.99,VWS Version 10.38,2013-03-27 23:09:00,
2013-03-27 19:14:00,46.4,9.6,29.96,West,266,2.7,2.7,22,0.00,NA,NA,-99.99,VWS Version 10.38,2013-03-27 23:14:00,
2013-03-27 19:24:00,46.0,12.2,29.99,NW,308,4.0,4.0,25,0.00,NA,NA,-99.99,VWS Version 10.38,2013-03-27 23:24:00,
2013-03-27 19:29:00,45.9,12.0,29.99,WNW,283,11.0,11.0,25,0.00,NA,NA,-99.99,VWS Version 10.38,2013-03-27 23:29:00,
2013-03-27 19:34:00,45.5,13.5,29.99,WNW,296,7.6,7.6,27,0.00,NA,NA,-99.99,VWS Version 10.38,2013-03-27 23:34:00,
2013-03-27 19:39:00,45.1,14.0,29.99,NW,316,7.6,7.6,28,0.00,NA,NA,-99.99,VWS Version 10.38,2013-03-27 23:39:00,
2013-03-27 19:44:00,45.1,14.0,29.99,NNW,334,4.0,4.0,28,0.00,NA,NA,-99.99,VWS Version 10.38,2013-03-27 23:44:00,
2013-03-27 19:54:00,44.8,13.7,29.99,West,272,4.9,4.9,28,0.00,NA,NA,-99.99,VWS Version 10.38,2013-03-27 23:54:00,
2013-03-27 19:59:00,44.4,13.4,29.99,WNW,284,2.7,2.7,28,0.00,NA,NA,-99.99,VWS Version 10.38,2013-03-27 23:59:00,
2013-03-27 20:04:00,43.9,12.9,29.99,NW,309,4.9,4.9,28,0.00,NA,NA,-99.99,VWS Version 10.38,2013-03-28 00:04:00,
2013-03-27 20:09:00,43.7,13.5,29.99,West,278,0.0,0.0,29,0.00,NA,NA,-99.99,VWS Version 10.38,2013-03-28 00:09:00,
2013-03-27 20:14:00,43.3,13.2,29.99,NNW,327,0.0,0.0,29,0.00,NA,NA,-99.99,VWS Version 10.38,2013-03-28 00:14:00,
2013-03-27 20:24:00,42.4,12.4,29.99,West,274,0.0,0.0,29,0.00,NA,NA,-99.99,VWS Version 10.38,2013-03-28 00:24:00,
2013-03-27 20:29:00,42.1,12.1,29.99,North,357,0.0,0.0,29,0.00,NA,NA,-99.99,VWS Version 10.38,2013-03-28 00:29:00,
2013-03-27 20:34:00,41.7,11.8,29.99,WNW,297,0.0,0.0,29,0.00,NA,NA,-99.99,VWS Version 10.38,2013-03-28 00:34:00,
2013-03-27 20:39:00,41.5,11.7,30.02,WNW,301,0.0,0.0,29,0.00,NA,NA,-99.99,VWS Version 10.38,2013-03-28 00:39:00,
2013-03-27 20:44:00,41.0,11.2,30.02,WNW,301,0.0,0.0,29,0.00,NA,NA,-99.99,VWS Version 10.38,2013-03-28 00:44:00,
2013-03-27 20:54:00,40.6,11.6,30.02,WNW,283,0.0,0.0,30,0.00,NA,NA,-99.99,VWS Version 10.38,2013-03-28 00:54:00,
2013-03-27 20:59:00,40.5,11.5,30.02,WSW,248,0.0,0.0,30,0.00,NA,NA,-99.99,VWS Version 10.38,2013-03-28 00:59:00,
2013-03-27 21:04:00,40.1,11.9,30.02,WSW,248,0.0,0.0,31,0.00,NA,NA,-99.99,VWS Version 10.38,2013-03-28 01:04:00,
2013-03-27 21:09:00,39.6,11.4,30.02,WSW,248,0.0,0.0,31,0.00,NA,NA,-99.99,VWS Version 10.38,2013-03-28 01:09:00,
2013-03-27 21:14:00,39.0,11.7,30.02,WNW,283,4.0,4.0,32,0.00,NA,NA,-99.99,VWS Version 10.38,2013-03-28 01:14:00,
2013-03-27 21:24:00,39.4,14.0,30.02,WNW,284,2.2,2.2,35,0.00,NA,NA,-99.99,VWS Version 10.38,2013-03-28 01:24:00,
2013-03-27 21:29:00,39.7,14.3,30.02,ESE,123,0.0,0.0,35,0.00,NA,NA,-99.99,VWS Version 10.38,2013-03-28 01:29:00,
2013-03-27 21:34:00,39.6,14.2,30.02,SW,221,0.0,0.0,35,0.00,NA,NA,-99.99,VWS Version 10.38,2013-03-28 01:34:00,
2013-03-27 21:39:00,39.7,14.3,30.02,South,177,0.0,0.0,35,0.00,NA,NA,-99.99,VWS Version 10.38,2013-03-28 01:39:00,
2013-03-27 21:44:00,40.5,15.0,30.02,SE,139,2.7,2.7,35,0.00,NA,NA,-99.99,VWS Version 10.38,2013-03-28 01:44:00,
2013-03-27 21:49:00,40.6,15.1,30.02,NW,317,2.7,2.7,35,0.00,NA,NA,-99.99,VWS Version 10.38,2013-03-28 01:49:00,
2013-03-27 21:59:00,41.5,15.3,30.02,WSW,238,3.1,3.1,34,0.00,NA,NA,-99.99,VWS Version 10.38,2013-03-28 01:59:00,
2013-03-27 22:04:00,41.7,14.8,30.02,NW,320,0.0,0.0,33,0.00,NA,NA,-99.99,VWS Version 10.38,2013-03-28 02:04:00,
2013-03-27 22:09:00,41.7,14.8,30.02,WSW,256,2.7,2.7,33,0.00,NA,NA,-99.99,VWS Version 10.38,2013-03-28 02:09:00,
2013-03-27 22:14:00,41.5,14.6,30.02,West,269,2.7,2.7,33,0.00,NA,NA,-99.99,VWS Version 10.38,2013-03-28 02:14:00,
2013-03-27 22:19:00,41.2,14.3,30.02,NNW,334,3.1,3.1,33,0.00,NA,NA,-99.99,VWS Version 10.38,2013-03-28 02:19:00,
2013-03-27 22:30:00,40.6,13.8,30.02,West,275,4.0,4.0,33,0.00,NA,NA,-99.99,VWS Version 10.38,2013-03-28 02:30:00,
2013-03-27 22:40:00,40.3,14.2,30.02,NW,309,4.0,4.0,34,0.00,NA,NA,-99.99,VWS Version 10.38,2013-03-28 02:40:00,
2013-03-27 22:45:00,40.1,14.0,30.02,NW,326,0.0,0.0,34,0.00,NA,NA,-99.99,VWS Version 10.38,2013-03-28 02:45:00,
2013-03-27 22:50:00,39.7,13.7,30.02,West,273,0.0,0.0,34,0.00,NA,NA,-99.99,VWS Version 10.38,2013-03-28 02:50:00,
2013-03-27 22:55:00,39.2,13.2,30.02,NW,310,0.0,0.0,34,0.00,NA,NA,-99.99,VWS Version 10.38,2013-03-28 02:55:00,
2013-03-27 23:00:00,39.0,14.3,30.02,WSW,254,0.0,0.0,36,0.00,NA,NA,-99.99,VWS Version 10.38,2013-03-28 03:00:00,
2013-03-27 23:10:00,38.5,13.9,30.02,WNW,286,0.0,0.0,36,0.00,NA,NA,-99.99,VWS Version 10.38,2013-03-28 03:10:00,
2013-03-27 23:15:00,37.9,13.4,30.02,WNW,286,0.0,0.0,36,0.00,NA,NA,-99.99,VWS Version 10.38,2013-03-28 03:15:00,
2013-03-27 23:20:00,37.4,14.7,30.02,WNW,286,0.0,0.0,39,0.00,NA,NA,-99.99,VWS Version 10.38,2013-03-28 03:20:00,
2013-03-27 23:25:00,37.0,14.4,30.02,WNW,286,0.0,0.0,39,0.00,NA,NA,-99.99,VWS Version 10.38,2013-03-28 03:25:00,
2013-03-27 23:30:00,36.7,14.1,30.02,East,83,0.0,0.0,39,0.00,NA,NA,-99.99,VWS Version 10.38,2013-03-28 03:30:00,
2013-03-27 23:40:00,36.0,14.0,30.02,NE,47,0.0,0.0,40,0.00,NA,NA,-99.99,VWS Version 10.38,2013-03-28 03:40:00,
2013-03-27 23:45:00,35.6,13.7,30.02,NE,47,0.0,0.0,40,0.00,NA,NA,-99.99,VWS Version 10.38,2013-03-28 03:45:00,
2013-03-27 23:50:00,35.1,13.2,30.02,NE,46,0.0,0.0,40,0.00,NA,NA,-99.99,VWS Version 10.38,2013-03-28 03:50:00,
2013-03-27 23:55:00,34.9,13.6,30.02,NNE,15,2.7,2.7,41,0.00,NA,NA,-99.99,VWS Version 10.38,2013-03-28 03:55:00,